createdAt,value
2022-09-14T00:01:44.245Z,100996.06
2022-09-14T00:04:16.156Z,101017.22
2022-09-14T00:06:45.815Z,101014.53
2022-09-14T00:09:18.320Z,101018.16
2022-09-14T00:11:47.265Z,101024.22
2022-09-14T00:14:17.378Z,101024.25
2022-09-14T00:16:46.062Z,101024.25
2022-09-14T00:19:21.184Z,101029.69
2022-09-14T00:21:53.509Z,101018.50
2022-09-14T00:24:23.811Z,100999.97
2022-09-14T00:26:52.679Z,101019.22
2022-09-14T00:29:24.115Z,101014.00
2022-09-14T00:31:53.084Z,101011.28
2022-09-14T00:34:21.523Z,101008.72
2022-09-14T00:36:52.092Z,101004.25
2022-09-14T00:39:23.563Z,100983.19
2022-09-14T00:41:53.544Z,101001.63
2022-09-14T00:45:08.226Z,100978.78
2022-09-14T00:47:37.124Z,100988.44
2022-09-14T00:50:07.087Z,100984.00
2022-09-14T00:52:39.023Z,100968.34
2022-09-14T00:55:11.352Z,100972.66
2022-09-14T00:57:44.952Z,100945.44
2022-09-14T01:00:18.607Z,100926.09
2022-09-14T01:02:47.014Z,100954.00
2022-09-14T01:05:16.109Z,100950.63
2022-09-14T01:08:14.081Z,100953.22
2022-09-14T01:11:02.552Z,100945.31
2022-09-14T01:13:42.820Z,100946.22
2022-09-14T01:16:22.073Z,100946.28
2022-09-14T01:18:57.931Z,100941.00
2022-09-14T01:21:30.327Z,100923.41
2022-09-14T01:24:07.251Z,100900.69
2022-09-14T01:27:11.922Z,100916.53
2022-09-14T01:29:46.369Z,100944.47
2022-09-14T01:32:19.676Z,100940.97
2022-09-14T01:34:54.957Z,100932.16
2022-09-14T01:37:30.493Z,100933.25
2022-09-14T01:40:06.730Z,100903.25
2022-09-14T01:42:36.472Z,100923.34
2022-09-14T01:45:12.363Z,100918.94
2022-09-14T01:47:47.254Z,100899.66
2022-09-14T01:50:21.565Z,100929.47
2022-09-14T01:52:56.704Z,100919.69
2022-09-14T01:55:30.928Z,100927.66
2022-09-14T01:58:06.488Z,100924.09
2022-09-14T02:00:39.862Z,100899.44
2022-09-14T02:03:14.998Z,100919.56
2022-09-14T02:05:55.491Z,100854.75
2022-09-14T02:08:26.059Z,100915.28
2022-09-14T02:10:54.377Z,100901.28
2022-09-14T02:13:22.754Z,100893.38
2022-09-14T02:15:52.474Z,100909.25
2022-09-14T02:18:21.580Z,100885.56
2022-09-14T02:20:55.073Z,100907.44
2022-09-14T02:23:24.206Z,100897.72
2022-09-14T02:25:54.250Z,100910.16
2022-09-14T02:28:23.008Z,100907.50
2022-09-14T02:31:06.904Z,100887.34
2022-09-14T02:33:44.689Z,100915.47
2022-09-14T02:36:23.086Z,100911.84
2022-09-14T02:39:02.214Z,100910.09
2022-09-14T02:41:42.640Z,100907.31
2022-09-14T02:44:21.859Z,100915.22
2022-09-14T02:46:59.560Z,100911.88
2022-09-14T02:49:35.547Z,100882.03
2022-09-14T02:52:12.520Z,100899.66
2022-09-14T02:54:50.159Z,100901.28
2022-09-14T02:57:18.455Z,100907.47
2022-09-14T02:59:46.684Z,100870.59
2022-09-14T03:02:16.401Z,100863.59
2022-09-14T03:04:44.670Z,100891.63
2022-09-14T03:07:12.880Z,100887.25
2022-09-14T03:09:41.167Z,100892.47
2022-09-14T03:12:09.519Z,100889.78
2022-09-14T03:14:37.766Z,100887.16
2022-09-14T03:17:06.189Z,100877.31
2022-09-14T03:19:35.727Z,100877.38
2022-09-14T03:22:04.039Z,100879.16
2022-09-14T03:24:32.644Z,100876.56
2022-09-14T03:27:00.852Z,100846.81
2022-09-14T03:29:29.080Z,100880.03
2022-09-14T03:31:57.640Z,100871.19
2022-09-14T03:34:25.953Z,100851.06
2022-09-14T03:36:55.514Z,100852.88
2022-09-14T03:39:24.239Z,100855.41
2022-09-14T03:41:52.456Z,100853.66
2022-09-14T03:44:20.816Z,100851.91
2022-09-14T03:46:49.295Z,100850.19
2022-09-14T03:49:17.824Z,100837.94
2022-09-14T03:51:46.068Z,100857.28
2022-09-14T03:54:15.582Z,100846.66
2022-09-14T03:56:43.825Z,100847.56
2022-09-14T03:59:12.474Z,100844.88
2022-09-14T04:01:41.170Z,100849.28
2022-09-14T04:04:09.414Z,100843.06
2022-09-14T04:06:37.605Z,100792.19
2022-09-14T04:09:06.176Z,100834.28
2022-09-14T04:11:35.792Z,100828.97
2022-09-14T04:14:05.874Z,100822.81
2022-09-14T04:16:34.212Z,100827.16
2022-09-14T04:19:02.697Z,100833.34
2022-09-14T04:21:31.065Z,100828.88
2022-09-14T04:24:16.414Z,100802.66
2022-09-14T04:26:47.293Z,100822.72
2022-09-14T04:29:15.524Z,100833.28
2022-09-14T04:31:43.914Z,100827.06
2022-09-14T04:34:14.566Z,100820.97
2022-09-14T04:36:43.101Z,100798.97
2022-09-14T04:39:14.101Z,100809.53
2022-09-14T04:41:42.565Z,100817.34
2022-09-14T04:44:12.810Z,100804.31
2022-09-14T04:46:46.175Z,100804.28
2022-09-14T04:49:16.607Z,100785.94
2022-09-14T04:51:45.122Z,100821.84
2022-09-14T04:54:17.355Z,100820.94
2022-09-14T04:56:46.417Z,100819.13
2022-09-14T04:59:16.374Z,100777.13
2022-09-14T05:01:48.846Z,100800.78
2022-09-14T05:04:17.856Z,100813.94
2022-09-14T05:06:46.571Z,100778.94
2022-09-14T05:09:18.389Z,100778.91
2022-09-14T05:11:47.011Z,100806.88
2022-09-14T05:14:16.826Z,100813.16
2022-09-14T05:16:45.791Z,100821.03
2022-09-14T05:19:17.532Z,100806.97
2022-09-14T05:21:46.392Z,100828.13
2022-09-14T05:24:18.788Z,100819.31
2022-09-14T05:26:48.472Z,100826.50
2022-09-14T05:29:20.030Z,100823.03
2022-09-14T05:31:48.827Z,100783.47
2022-09-14T05:34:17.397Z,100815.91
2022-09-14T05:36:45.629Z,100780.88
2022-09-14T05:39:13.998Z,100826.38
2022-09-14T05:41:42.272Z,100829.84
2022-09-14T05:44:11.012Z,100800.13
2022-09-14T05:46:40.628Z,100824.66
2022-09-14T05:49:09.061Z,100825.47
2022-09-14T05:51:37.893Z,100800.94
2022-09-14T05:54:11.481Z,100822.78
2022-09-14T05:56:39.918Z,100827.09
2022-09-14T05:59:08.115Z,100828.84
2022-09-14T06:01:36.519Z,100828.81
2022-09-14T06:04:06.139Z,100834.09
2022-09-14T06:06:34.784Z,100828.78
2022-09-14T06:09:04.401Z,100826.09
2022-09-14T06:11:36.266Z,100792.81
2022-09-14T06:14:05.685Z,100815.59
2022-09-14T06:16:34.277Z,100787.53
2022-09-14T06:19:02.555Z,100818.94
2022-09-14T06:21:34.722Z,100785.63
2022-09-14T06:24:03.408Z,100804.84
2022-09-14T06:26:32.284Z,100810.13
2022-09-14T06:29:01.078Z,100802.09
2022-09-14T06:31:29.284Z,100791.53
2022-09-14T06:33:57.621Z,100787.19
2022-09-14T06:36:28.346Z,100793.47
2022-09-14T06:38:59.894Z,100795.13
2022-09-14T06:41:30.546Z,100796.03
2022-09-14T06:44:01.573Z,100771.47
2022-09-14T06:46:31.838Z,100778.41
2022-09-14T06:49:02.705Z,100794.19
2022-09-14T06:51:34.164Z,100764.34
2022-09-14T06:54:04.944Z,100788.81
2022-09-14T06:56:35.500Z,100784.34
2022-09-14T06:59:04.744Z,100781.78
2022-09-14T07:01:33.291Z,100792.34
2022-09-14T07:04:02.016Z,100786.09
2022-09-14T07:06:33.237Z,100775.59
2022-09-14T07:09:06.798Z,100778.97
2022-09-14T07:11:35.753Z,100780.75
2022-09-14T07:14:04.244Z,100774.63
2022-09-14T07:16:35.258Z,100748.34
2022-09-14T07:19:06.850Z,100752.72
2022-09-14T07:21:36.442Z,100719.50
2022-09-14T07:24:06.562Z,100774.72
2022-09-14T07:26:40.088Z,100772.97
2022-09-14T07:29:11.999Z,100774.63
2022-09-14T07:31:44.067Z,100782.63
2022-09-14T07:34:15.149Z,100759.91
2022-09-14T07:36:43.989Z,100783.50
2022-09-14T07:39:17.133Z,100790.41
2022-09-14T07:41:45.910Z,100762.31
2022-09-14T07:44:17.933Z,100777.38
2022-09-14T07:46:47.629Z,100755.47
2022-09-14T07:49:17.484Z,100753.66
2022-09-14T07:51:46.355Z,100759.69
2022-09-14T07:54:19.133Z,100749.16
2022-09-14T07:56:49.381Z,100761.41
2022-09-14T07:59:35.130Z,100776.19
2022-09-14T08:02:06.279Z,100767.34
2022-09-14T08:04:36.173Z,100768.16
2022-09-14T08:07:04.885Z,100755.06
2022-09-14T08:09:34.673Z,100745.34
2022-09-14T08:12:05.785Z,100766.38
2022-09-14T08:14:34.234Z,100784.81
2022-09-14T08:17:02.627Z,100770.94
2022-09-14T08:19:30.855Z,100791.06
2022-09-14T08:21:59.054Z,100785.69
2022-09-14T08:24:27.291Z,100784.91
2022-09-14T08:26:56.894Z,100743.88
2022-09-14T08:29:25.129Z,100780.50
2022-09-14T08:31:53.859Z,100780.63
2022-09-14T08:34:22.389Z,100783.09
2022-09-14T08:36:50.699Z,100742.25
2022-09-14T08:39:19.573Z,100766.66
2022-09-14T08:41:54.029Z,100778.78
2022-09-14T08:44:28.524Z,100780.53
2022-09-14T08:47:02.821Z,100735.69
2022-09-14T08:49:47.968Z,100734.00
2022-09-14T08:52:28.730Z,100767.94
2022-09-14T08:55:00.504Z,100766.94
2022-09-14T08:57:42.748Z,100769.59
2022-09-14T09:00:16.996Z,100780.94
2022-09-14T09:03:31.014Z,100782.47
2022-09-14T09:06:15.807Z,100787.53
2022-09-14T09:08:55.009Z,100779.56
2022-09-14T09:11:27.940Z,100783.13
2022-09-14T09:13:57.708Z,100765.38
2022-09-14T09:16:29.599Z,100766.97
2022-09-14T09:19:04.022Z,100772.78
2022-09-14T09:21:39.862Z,100764.66
2022-09-14T09:24:25.257Z,100763.50
2022-09-14T09:26:53.548Z,100770.50
2022-09-14T09:29:21.832Z,100749.50
2022-09-14T09:32:17.381Z,100762.72
2022-09-14T09:34:48.970Z,100752.19
2022-09-14T09:37:40.812Z,100761.81
2022-09-14T09:40:18.557Z,100767.81
2022-09-14T09:43:10.157Z,100758.28
2022-09-14T09:45:57.916Z,100769.53
2022-09-14T09:48:32.372Z,100760.69
2022-09-14T09:51:08.458Z,100738.91
2022-09-14T09:53:40.274Z,100769.63
2022-09-14T09:56:09.610Z,100773.09
2022-09-14T09:58:39.738Z,100743.56
2022-09-14T10:01:19.133Z,100767.06
2022-09-14T10:04:08.472Z,100748.59
2022-09-14T10:06:44.382Z,100750.41
2022-09-14T10:09:19.054Z,100742.44
2022-09-14T10:11:48.524Z,100720.81
2022-09-14T10:14:27.565Z,100759.38
2022-09-14T10:17:05.741Z,100756.66
2022-09-14T10:19:35.679Z,100758.38
2022-09-14T10:22:20.833Z,100726.19
2022-09-14T10:24:58.472Z,100737.63
2022-09-14T10:27:43.061Z,100745.38
2022-09-14T10:30:17.296Z,100750.72
2022-09-14T10:32:54.591Z,100741.91
2022-09-14T10:35:30.726Z,100767.22
2022-09-14T10:38:28.757Z,100763.66
2022-09-14T10:41:10.429Z,100765.53
2022-09-14T10:43:57.701Z,100763.63
2022-09-14T10:46:31.974Z,100757.53
2022-09-14T10:49:22.804Z,100763.00
2022-09-14T10:52:02.544Z,100764.09
2022-09-14T10:55:05.542Z,100766.44
2022-09-14T10:57:47.334Z,100764.84
2022-09-14T11:00:20.213Z,100773.13
2022-09-14T11:03:24.940Z,100780.03
2022-09-14T11:06:05.702Z,100761.41
2022-09-14T11:08:43.374Z,100773.00
2022-09-14T11:11:30.548Z,100722.28
2022-09-14T11:14:26.459Z,100775.75
2022-09-14T11:17:19.280Z,100770.28
2022-09-14T11:19:59.021Z,100767.69
2022-09-14T11:22:40.378Z,100767.81
2022-09-14T11:25:16.028Z,100725.66
2022-09-14T11:27:50.880Z,100762.41
2022-09-14T11:30:22.425Z,100767.69
2022-09-14T11:32:58.273Z,100747.53
2022-09-14T11:35:34.815Z,100747.31
2022-09-14T11:38:12.391Z,100709.81
2022-09-14T11:40:48.223Z,100711.53
2022-09-14T11:43:21.529Z,100713.25
2022-09-14T11:45:53.821Z,100746.41
2022-09-14T11:48:45.150Z,100737.78
2022-09-14T11:51:19.655Z,100703.81
2022-09-14T11:53:48.332Z,100744.19
2022-09-14T11:56:28.536Z,100718.91
2022-09-14T11:59:00.012Z,100727.50
2022-09-14T12:01:35.638Z,100733.66
2022-09-14T12:04:14.364Z,100742.81
2022-09-14T12:06:54.086Z,100711.78
2022-09-14T12:09:54.806Z,100732.00
2022-09-14T12:12:37.565Z,100719.97
2022-09-14T12:15:22.763Z,100744.63
2022-09-14T12:17:52.204Z,100695.75
2022-09-14T12:20:41.864Z,100706.31
2022-09-14T12:23:31.530Z,100688.78
2022-09-14T12:26:31.086Z,100710.41
2022-09-14T12:29:28.914Z,100695.59
2022-09-14T12:32:24.582Z,100719.53
2022-09-14T12:35:47.238Z,100739.63
2022-09-14T12:38:42.677Z,100728.66
2022-09-14T12:41:59.829Z,100729.22
2022-09-14T12:44:39.968Z,100705.53
2022-09-14T12:48:00.450Z,100736.84
2022-09-14T12:50:35.147Z,100748.53
2022-09-14T12:53:29.752Z,100743.25
2022-09-14T12:56:05.032Z,100744.19
2022-09-14T12:59:00.398Z,100736.97
2022-09-14T13:01:46.407Z,100721.06
2022-09-14T13:04:18.284Z,100729.75
2022-09-14T13:06:48.426Z,100705.06
2022-09-14T13:09:23.803Z,100716.28
2022-09-14T13:11:57.966Z,100713.31
2022-09-14T13:14:31.610Z,100737.50
2022-09-14T13:17:04.276Z,100723.13
2022-09-14T13:19:34.818Z,100708.97
2022-09-14T13:22:04.098Z,100718.50
2022-09-14T13:24:40.675Z,100691.22
2022-09-14T13:27:23.810Z,100694.59
2022-09-14T13:30:02.525Z,100705.66
2022-09-14T13:32:32.997Z,100687.31
2022-09-14T13:35:02.547Z,100708.16
2022-09-14T13:37:31.904Z,100714.34
2022-09-14T13:40:01.096Z,100674.19
2022-09-14T13:42:29.576Z,100703.88
2022-09-14T13:44:58.022Z,100694.22
2022-09-14T13:47:27.127Z,100697.84
2022-09-14T13:49:57.458Z,100688.25
2022-09-14T13:52:57.044Z,100681.09
2022-09-14T13:55:26.105Z,100657.31
2022-09-14T13:58:22.068Z,100683.25
2022-09-14T14:00:58.388Z,100672.63
2022-09-14T14:03:34.889Z,100686.22
2022-09-14T14:06:21.349Z,100685.88
2022-09-14T14:09:03.074Z,100682.28
2022-09-14T14:11:36.601Z,100662.75
2022-09-14T14:14:21.585Z,100659.13
2022-09-14T14:17:26.290Z,100672.06
2022-09-14T14:19:57.147Z,100643.44
2022-09-14T14:22:30.042Z,100659.00
2022-09-14T14:25:14.536Z,100653.38
2022-09-14T14:27:46.128Z,100636.56
2022-09-14T14:30:18.237Z,100653.09
2022-09-14T14:32:51.920Z,100644.09
2022-09-14T14:35:23.967Z,100631.38
2022-09-14T14:37:54.686Z,100631.22
2022-09-14T14:40:24.453Z,100624.72
2022-09-14T14:42:53.541Z,100650.72
2022-09-14T14:45:26.489Z,100650.72
2022-09-14T14:47:56.593Z,100620.91
2022-09-14T14:50:28.384Z,100624.75
2022-09-14T14:52:58.560Z,100642.78
2022-09-14T14:55:27.523Z,100642.09
2022-09-14T14:57:59.561Z,100646.47
2022-09-14T15:00:29.114Z,100592.38
2022-09-14T15:02:57.364Z,100632.44
2022-09-14T15:05:25.850Z,100642.28
2022-09-14T15:07:56.045Z,100638.78
2022-09-14T15:10:28.970Z,100632.44
2022-09-14T15:12:57.312Z,100588.44
2022-09-14T15:15:27.516Z,100616.34
2022-09-14T15:17:55.975Z,100621.56
2022-09-14T15:20:24.317Z,100618.91
2022-09-14T15:22:52.810Z,100611.97
2022-09-14T15:25:22.690Z,100604.94
2022-09-14T15:27:52.547Z,100625.16
2022-09-14T15:30:20.970Z,100623.25
2022-09-14T15:32:49.208Z,100626.00
2022-09-14T15:35:18.281Z,100627.38
2022-09-14T15:37:48.536Z,100637.91
2022-09-14T15:40:17.188Z,100643.09
2022-09-14T15:42:45.642Z,100640.34
2022-09-14T15:45:15.272Z,100641.97
2022-09-14T15:47:43.972Z,100642.66
2022-09-14T15:50:12.941Z,100650.19
2022-09-14T15:52:41.912Z,100646.47
2022-09-14T15:55:12.533Z,100626.91
2022-09-14T15:57:41.175Z,100615.53
2022-09-14T16:00:13.319Z,100609.28
2022-09-14T16:02:42.982Z,100651.25
2022-09-14T16:05:12.883Z,100624.84
2022-09-14T16:07:41.184Z,100655.47
2022-09-14T16:10:10.841Z,100651.16
2022-09-14T16:12:39.151Z,100652.00
2022-09-14T16:15:09.607Z,100657.09
2022-09-14T16:17:37.978Z,100654.63
2022-09-14T16:20:11.217Z,100671.38
2022-09-14T16:22:39.540Z,100662.81
2022-09-14T16:25:08.044Z,100677.88
2022-09-14T16:27:36.358Z,100672.53
2022-09-14T16:30:05.444Z,100670.91
2022-09-14T16:32:33.729Z,100676.41
2022-09-14T16:35:05.882Z,100660.69
2022-09-14T16:37:37.703Z,100686.75
2022-09-14T16:40:07.154Z,100688.66
2022-09-14T16:42:35.473Z,100665.97
2022-09-14T16:45:03.903Z,100682.66
2022-09-14T16:47:32.593Z,100639.91
2022-09-14T16:50:00.891Z,100680.81
2022-09-14T16:52:29.818Z,100656.50
2022-09-14T16:54:59.482Z,100681.03
2022-09-14T16:57:29.797Z,100684.09
2022-09-14T16:59:58.218Z,100672.88
2022-09-14T17:02:26.710Z,100682.69
2022-09-14T17:04:55.084Z,100673.34
2022-09-14T17:07:23.980Z,100636.75
2022-09-14T17:09:52.384Z,100663.22
2022-09-14T17:12:21.949Z,100679.91
2022-09-14T17:14:50.423Z,100689.03
2022-09-14T17:17:18.702Z,100694.34
2022-09-14T17:19:47.128Z,100685.41
2022-09-14T17:22:15.570Z,100642.81
2022-09-14T17:24:43.832Z,100646.31
2022-09-14T17:27:12.092Z,100695.19
2022-09-14T17:29:41.879Z,100682.19
2022-09-14T17:32:14.625Z,100654.19
2022-09-14T17:34:43.317Z,100693.66
2022-09-14T17:37:12.080Z,100692.03
2022-09-14T17:39:40.359Z,100704.47
2022-09-14T17:42:08.648Z,100701.00
2022-09-14T17:44:37.100Z,100693.19
2022-09-14T17:47:07.310Z,100696.72
2022-09-14T17:49:35.714Z,100694.06
2022-09-14T17:52:04.151Z,100695.81
2022-09-14T17:54:32.516Z,100643.66
2022-09-14T17:57:01.063Z,100698.84
2022-09-14T17:59:29.764Z,100665.97
2022-09-14T18:01:58.032Z,100695.09
2022-09-14T18:04:28.085Z,100695.19
2022-09-14T18:06:57.458Z,100660.69
2022-09-14T18:09:26.103Z,100701.06
2022-09-14T18:11:58.143Z,100708.44
2022-09-14T18:14:27.157Z,100721.78
2022-09-14T18:16:55.429Z,100634.69
2022-09-14T18:19:23.837Z,100646.38
2022-09-14T18:21:53.567Z,100723.25
2022-09-14T18:24:22.251Z,100698.91
2022-09-14T18:26:50.834Z,100743.72
2022-09-14T18:29:23.148Z,100739.50
2022-09-14T18:31:52.070Z,100741.47
2022-09-14T18:34:21.092Z,100743.16
2022-09-14T18:36:53.485Z,100709.22
2022-09-14T18:39:22.114Z,100751.38
2022-09-14T18:41:53.767Z,100755.88
2022-09-14T18:44:22.424Z,100720.13
2022-09-14T18:46:51.665Z,100723.69
2022-09-14T18:49:20.402Z,100704.41
2022-09-14T18:51:48.874Z,100766.59
2022-09-14T18:54:18.732Z,100767.63
2022-09-14T18:56:47.178Z,100748.34
2022-09-14T18:59:16.953Z,100749.31
2022-09-14T19:01:45.669Z,100771.31
2022-09-14T19:04:15.658Z,100777.44
2022-09-14T19:06:44.730Z,100774.69
2022-09-14T19:09:13.190Z,100779.03
2022-09-14T19:11:43.438Z,100777.31
2022-09-14T19:14:13.844Z,100754.53
2022-09-14T19:16:42.946Z,100777.41
2022-09-14T19:19:15.788Z,100748.56
2022-09-14T19:21:45.764Z,100748.59
2022-09-14T19:24:17.207Z,100711.81
2022-09-14T19:26:50.308Z,100773.97
2022-09-14T19:29:21.431Z,100753.94
2022-09-14T19:31:52.207Z,100787.25
2022-09-14T19:34:22.011Z,100753.94
2022-09-14T19:36:51.912Z,100730.41
2022-09-14T19:39:20.446Z,100754.91
2022-09-14T19:41:50.723Z,100787.38
2022-09-14T19:44:19.398Z,100779.53
2022-09-14T19:46:47.893Z,100743.78
2022-09-14T19:49:21.003Z,100791.91
2022-09-14T19:51:50.483Z,100790.19
2022-09-14T19:54:19.319Z,100789.31
2022-09-14T19:56:49.064Z,100761.28
2022-09-14T19:59:17.830Z,100737.56
2022-09-14T20:01:47.161Z,100773.66
2022-09-14T20:04:18.251Z,100802.56
2022-09-14T20:06:48.470Z,100761.41
2022-09-14T20:09:20.339Z,100784.16
2022-09-14T20:11:52.515Z,100764.13
2022-09-14T20:14:24.396Z,100815.81
2022-09-14T20:16:55.036Z,100811.41
2022-09-14T20:19:25.283Z,100783.31
2022-09-14T20:21:54.797Z,100772.03
2022-09-14T20:24:26.408Z,100818.44
2022-09-14T20:26:58.869Z,100769.31
2022-09-14T20:29:30.746Z,100783.34
2022-09-14T20:32:00.092Z,100822.00
2022-09-14T20:34:28.642Z,100820.25
2022-09-14T20:37:00.167Z,100786.94
2022-09-14T20:39:29.594Z,100817.53
2022-09-14T20:41:59.341Z,100822.88
2022-09-14T20:44:27.749Z,100827.16
2022-09-14T20:46:56.170Z,100828.13
2022-09-14T20:49:24.977Z,100822.09
2022-09-14T20:51:54.383Z,100825.53
2022-09-14T20:54:23.591Z,100827.38
2022-09-14T20:56:52.024Z,100826.44
2022-09-14T20:59:22.888Z,100829.09
2022-09-14T21:01:53.600Z,100822.91
2022-09-14T21:04:24.800Z,100809.00
2022-09-14T21:06:55.653Z,100827.44
2022-09-14T21:09:26.384Z,100804.66
2022-09-14T21:11:55.643Z,100825.72
2022-09-14T21:14:25.502Z,100826.59
2022-09-14T21:16:56.704Z,100816.03
2022-09-14T21:19:28.246Z,100822.09
2022-09-14T21:21:57.494Z,100829.09
2022-09-14T21:24:26.428Z,100848.41
2022-09-14T21:26:56.764Z,100767.81
2022-09-14T21:29:26.495Z,100853.66
2022-09-14T21:31:54.881Z,100858.91
2022-09-14T21:34:23.367Z,100815.09
2022-09-14T21:36:53.297Z,100834.34
2022-09-14T21:39:24.962Z,100856.31
2022-09-14T21:41:58.892Z,100816.84
2022-09-14T21:44:34.543Z,100851.84
2022-09-14T21:47:04.358Z,100826.47
2022-09-14T21:49:33.112Z,100836.16
2022-09-14T21:52:01.403Z,100868.59
2022-09-14T21:54:30.024Z,100832.69
2022-09-14T21:56:58.414Z,100830.06
2022-09-14T21:59:26.651Z,100867.78
2022-09-14T22:01:56.520Z,100863.41
2022-09-14T22:04:26.146Z,100858.19
2022-09-14T22:06:55.174Z,100824.91
2022-09-14T22:09:27.030Z,100831.13
2022-09-14T22:11:56.363Z,100827.53
2022-09-14T22:14:27.912Z,100832.88
2022-09-14T22:16:57.717Z,100813.59
2022-09-14T22:19:28.881Z,100836.41
2022-09-14T22:21:58.134Z,100851.38
2022-09-14T22:24:33.532Z,100835.63
2022-09-14T22:27:05.157Z,100857.53
2022-09-14T22:29:33.490Z,100861.94
2022-09-14T22:32:04.441Z,100865.50
2022-09-14T22:34:33.488Z,100858.53
2022-09-14T22:37:01.760Z,100883.09
2022-09-14T22:39:30.140Z,100872.59
2022-09-14T22:41:59.228Z,100876.97
2022-09-14T22:44:27.628Z,100876.06
2022-09-14T22:46:55.906Z,100876.91
2022-09-14T22:49:25.659Z,100856.78
2022-09-14T22:51:53.984Z,100856.78
2022-09-14T22:54:22.409Z,100861.16
2022-09-14T22:56:51.282Z,100882.22
2022-09-14T22:59:19.583Z,100878.72
2022-09-14T23:01:47.904Z,100883.09
2022-09-14T23:04:16.473Z,100846.25
2022-09-14T23:06:48.392Z,100881.34
2022-09-14T23:09:19.264Z,100843.66
2022-09-14T23:11:48.143Z,100841.88
2022-09-14T23:14:17.460Z,100882.19
2022-09-14T23:16:46.194Z,100866.38
2022-09-14T23:19:17.809Z,100865.50
2022-09-14T23:21:48.096Z,100861.97
2022-09-14T23:24:17.541Z,100891.78
2022-09-14T23:26:46.040Z,100889.09
2022-09-14T23:29:17.894Z,100897.84
2022-09-14T23:31:46.270Z,100896.09
2022-09-14T23:34:15.352Z,100885.56
2022-09-14T23:36:43.705Z,100889.00
2022-09-14T23:39:13.327Z,100906.50
2022-09-14T23:41:41.636Z,100877.56
2022-09-14T23:44:12.696Z,100876.56
2022-09-14T23:46:40.995Z,100899.41
2022-09-14T23:49:09.427Z,100895.84
2022-09-14T23:51:37.747Z,100846.75
2022-09-14T23:54:08.173Z,100875.63
2022-09-14T23:56:38.586Z,100874.78
2022-09-14T23:59:07.186Z,100897.59
